Latest Coastal Weather Observations for Dum In Mirrie

IDD60701

Issued at 11:01 am CST Tuesday 28 July 2015 (issued every 10 minutes, with the page automatically refreshed every 10 minutes)

About coastal observations | Map of coastal stations | Coastal observations for NT | Marine services | Other Formats
Station Details ID: 014277 Name: DUM IN MIRRIE AIRSTRIP Lat: -12.63 Lon: 130.37 Height: 3.5 m
Data from the previous 72 hours. | See also: Recent months at Dum In Mirrie
Date/Time
CST
Temp

°C
Wind Pressure Rain
since 9am
mm
Weather Cloud Vis
km
Sea
Height
m
Swell
Dir
 
Speed
knots
Gust
knots
hPa Trend Height
m
Period
s
Dir
28/11:00am 27.9 SE 9 19 1018.0 - 0.0 - - - - - - -
28/10:30am 26.9 ESE 8 15 1018.2 - 0.0 - - - - - - -
28/10:00am 25.6 SE 7 14 1018.4 - 0.0 - - - - - - -
28/09:30am 24.6 SE 7 14 1018.3 - 0.0 - - - - - - -
28/09:00am 24.1 ESE 7 11 1018.2 - 0.0 - - - - - - -
28/08:30am 23.3 ESE 5 11 1017.9 - 0.0 - - - - - - -
28/08:00am 22.5 ESE 5 11 1017.7 - 0.0 - - - - - - -
28/07:30am 21.7 ESE 4 7 1017.4 - 0.0 - - - - - - -
28/07:00am 22.0 ESE 5 9 1017.2 - 0.0 - - - - - - -
28/06:30am 22.4 ESE 6 9 1016.9 - 0.0 - - - - - - -
28/06:00am 22.7 ESE 6 11 1016.6 - 0.0 - - - - - - -
28/05:30am 22.8 ESE 5 8 1016.4 - 0.0 - - - - - - -
28/05:00am 23.3 ESE 5 9 1016.2 - 0.0 - - - - - - -
28/04:30am 23.7 SE 5 9 1016.1 - 0.0 - - - - - - -
28/04:00am 23.1 SE 3 6 1016.1 - 0.0 - - - - - - -
28/03:30am 22.6 SE 2 3 1016.1 - 0.0 - - - - - - -
28/03:00am 22.9 SE 2 4 1016.0 - 0.0 - - - - - - -
28/02:30am 22.6 CALM 0 2 1016.1 - 0.0 - - - - - - -
28/02:00am 22.9 SSE 2 3 1016.4 - 0.0 - - - - - - -
28/01:30am 22.9 S 2 8 1016.6 - 0.0 - - - - - - -
28/01:00am 21.3 CALM 0 0 1016.4 - 0.0 - - - - - - -
28/12:30am 21.6 CALM 0 0 1016.5 - 0.0 - - - - - - -
28/12:00am 22.6 CALM 0 0 1016.6 - 0.0 - - - - - - -
 
Date/Time
CST
Temp

°C
Wind Pressure Rain
since 9am
mm
Weather Cloud Vis
km
Sea
Height
m
Swell
Dir
 
Speed
knots
Gust
knots
hPa Trend Height
m
Period
s
Dir
27/11:30pm 22.9 CALM 0 0 1016.5 - 0.0 - - - - - - -
27/11:00pm 23.6 SSE 1 2 1016.4 - 0.0 - - - - - - -
27/10:30pm 24.3 SE 1 2 1016.5 - 0.0 - - - - - - -
27/10:00pm 24.4 CALM 0 2 1016.4 - 0.0 - - - - - - -
27/09:30pm 24.9 S 1 3 1016.1 - 0.0 - - - - - - -
27/09:00pm 23.4 CALM 0 0 1015.8 - 0.0 - - - - - - -
27/08:30pm 23.4 CALM 0 0 1015.6 - 0.0 - - - - - - -
27/08:00pm 24.1 CALM 0 0 1015.1 - 0.0 - - - - - - -
27/07:30pm 25.0 CALM 0 0 1014.9 - 0.0 - - - - - - -
27/07:00pm 26.0 WNW 2 2 1014.5 - 0.0 - - - - - - -
27/06:30pm 26.7 NW 2 3 1014.2 - 0.0 - - - - - - -
27/06:00pm 27.8 NW 2 5 1014.0 - 0.0 - - - - - - -
27/05:30pm 28.0 NW 4 7 1013.8 - 0.0 - - - - - - -
27/05:00pm 28.6 NW 4 7 1013.7 - 0.0 - - - - - - -
27/04:30pm 28.6 WNW 4 7 1013.8 - 0.0 - - - - - - -
27/04:00pm 28.8 WNW 6 10 1013.7 - 0.0 - - - - - - -
27/03:30pm 29.1 NNW 7 10 1013.5 - 0.0 - - - - - - -
27/03:00pm 31.8 NE 7 13 1013.5 - 0.0 - - - - - - -
27/02:30pm 34.6 E 8 15 1013.5 - 0.0 - - - - - - -
27/02:00pm 34.2 E 9 14 1013.9 - 0.0 - - - - - - -
27/01:30pm 33.9 E 9 14 1014.4 - 0.0 - - - - - - -
27/01:00pm 33.1 E 9 14 1014.9 - 0.0 - - - - - - -
27/12:30pm 33.1 E 9 15 1015.5 - 0.0 - - - - - - -
27/12:00pm 32.7 E 8 13 1016.1 - 0.0 - - - - - - -
27/11:30am 32.2 ESE 7 11 1016.7 - 0.0 - - - - - - -
27/11:00am 30.2 SSE 3 6 1017.2 - 0.0 - - - - - - -
27/10:30am 29.5 SSE 3 8 1017.5 - 0.0 - - - - - - -
27/10:00am 28.1 SSE 4 8 1017.7 - 0.0 - - - - - - -
27/09:30am 26.6 SSE 4 7 1017.8 - 0.0 - - - - - - -
27/09:00am 25.1 SSE 3 5 1017.8 - 0.0 - - - - - - -
27/08:30am 24.3 S 3 5 1017.5 - 0.0 - - - - - - -
27/08:00am 23.8 S 3 5 1017.1 - 0.0 - - - - - - -
27/07:30am 23.5 SSE 2 4 1016.7 - 0.0 - - - - - - -
27/07:00am 23.3 SSE 2 3 1016.5 - 0.0 - - - - - - -
27/06:30am 23.0 CALM 0 0 1016.3 - 0.0 - - - - - - -
27/06:00am 23.0 CALM 0 0 1016.1 - 0.0 - - - - - - -
27/05:30am 23.4 CALM 0 0 1016.1 - 0.0 - - - - - - -
27/05:00am 23.7 SE 1 2 1016.1 - 0.0 - - - - - - -
27/04:30am 23.8 SE 2 3 1016.2 - 0.0 - - - - - - -
27/04:00am 23.8 ESE 3 5 1016.1 - 0.0 - - - - - - -
27/03:30am 23.8 ESE 2 3 1016.1 - 0.0 - - - - - - -
27/03:00am 23.8 CALM 0 1 1016.3 - 0.0 - - - - - - -
27/02:30am 23.9 ESE 1 1 1016.4 - 0.0 - - - - - - -
27/02:00am 24.0 SSE 2 3 1016.7 - 0.0 - - - - - - -
27/01:30am 24.1 CALM 0 0 1016.7 - 0.0 - - - - - - -
27/01:00am 24.2 CALM 0 1 1016.8 - 0.0 - - - - - - -
27/12:30am 24.5 S 1 2 1016.9 - 0.0 - - - - - - -
27/12:00am 24.6 SSW 1 3 1017.1 - 0.0 - - - - - - -
 
Date/Time
CST
Temp

°C
Wind Pressure Rain
since 9am
mm
Weather Cloud Vis
km
Sea
Height
m
Swell
Dir
 
Speed
knots
Gust
knots
hPa Trend Height
m
Period
s
Dir
26/11:30pm 24.6 S 1 2 1017.2 - 0.0 - - - - - - -
26/11:00pm 24.9 SSW 3 5 1017.1 - 0.0 - - - - - - -
26/10:30pm 25.1 SSW 2 5 1017.1 - 0.0 - - - - - - -
26/10:00pm 25.2 SSW 3 5 1016.9 - 0.0 - - - - - - -
26/09:30pm 25.3 SSW 3 5 1016.6 - 0.0 - - - - - - -
26/09:00pm 25.6 SSW 4 6 1016.5 - 0.0 - - - - - - -
26/08:30pm 25.7 SSW 4 7 1016.3 - 0.0 - - - - - - -
26/08:00pm 25.7 SW 3 5 1016.0 - 0.0 - - - - - - -
26/07:30pm 25.8 WSW 1 6 1015.5 - 0.0 - - - - - - -
26/07:00pm 26.1 W 4 6 1015.3 - 0.0 - - - - - - -
26/06:30pm 26.4 W 3 6 1015.0 - 0.0 - - - - - - -
26/06:00pm 27.3 W 3 6 1014.6 - 0.0 - - - - - - -
26/05:30pm 27.8 W 4 8 1014.3 - 0.0 - - - - - - -
26/05:00pm 27.9 W 6 9 1014.1 - 0.0 - - - - - - -
26/04:30pm 28.1 WNW 5 9 1013.9 - 0.0 - - - - - - -
26/04:00pm 28.5 WNW 5 8 1013.7 - 0.0 - - - - - - -
26/03:30pm 28.6 NW 6 9 1013.6 - 0.0 - - - - - - -
26/03:00pm 28.4 WNW 5 9 1014.0 - 0.0 - - - - - - -
26/02:30pm 28.0 W 6 9 1014.3 - 0.0 - - - - - - -
26/02:00pm 28.1 WNW 5 9 1014.6 - 0.0 - - - - - - -
26/01:30pm 28.4 WNW 5 8 1014.6 - 0.0 - - - - - - -
26/01:00pm 28.2 NW 5 7 1015.0 - 0.0 - - - - - - -
26/12:30pm 27.7 WNW 5 8 1015.7 - 0.0 - - - - - - -
26/12:00pm 27.7 WSW 6 9 1016.2 - 0.0 - - - - - - -
26/11:30am 28.2 W 4 6 1016.7 - 0.0 - - - - - - -
26/11:00am 29.2 W 2 3 1017.0 - 0.0 - - - - - - -
26/10:30am 29.0 ENE 2 4 1017.0 - 0.0 - - - - - - -
26/10:00am 28.0 ENE 2 5 1017.1 - 0.0 - - - - - - -
26/09:30am 26.7 ESE 3 4 1017.1 - 0.0 - - - - - - -
26/09:00am 25.8 SSE 1 2 1017.1 - 0.0 - - - - - - -
26/08:30am 24.6 ESE 1 2 1016.9 - 0.0 - - - - - - -
26/08:00am 22.2 CALM 0 0 1016.8 - 0.0 - - - - - - -
26/07:30am 20.5 SE 1 2 1016.5 - 0.0 - - - - - - -
26/07:00am 20.9 SE 2 3 1016.3 - 0.0 - - - - - - -
26/06:30am 21.1 ESE 3 4 1016.1 - 0.0 - - - - - - -
26/06:00am 21.1 ESE 3 4 1015.8 - 0.0 - - - - - - -
26/05:30am 21.6 E 3 5 1015.7 - 0.0 - - - - - - -
26/05:00am 21.4 E 2 3 1015.7 - 0.0 - - - - - - -
26/04:30am 19.8 E 2 3 1015.5 - 0.0 - - - - - - -
26/04:00am 20.2 CALM 0 1 1015.3 - 0.0 - - - - - - -
26/03:30am 20.1 ENE 1 2 1015.2 - 0.0 - - - - - - -
26/03:00am 20.9 E 1 2 1015.6 - 0.0 - - - - - - -
26/02:30am 20.5 NE 2 3 1015.7 - 0.0 - - - - - - -
26/02:00am 20.9 NE 2 3 1015.7 - 0.0 - - - - - - -
26/01:30am 21.8 NE 1 3 1015.8 - 0.0 - - - - - - -
26/01:00am 23.2 CALM 0 1 1015.9 - 0.0 - - - - - - -
26/12:30am 24.0 S 2 4 1016.0 - 0.0 - - - - - - -
26/12:00am 24.0 SSW 2 5 1016.1 - 0.0 - - - - - - -
 
Date/Time
CST
Temp

°C
Wind Pressure Rain
since 9am
mm
Weather Cloud Vis
km
Sea
Height
m
Swell
Dir
 
Speed
knots
Gust
knots
hPa Trend Height
m
Period
s
Dir
25/11:30pm 24.2 SSW 2 4 1016.3 - 0.0 - - - - - - -
25/11:00pm 24.5 SSW 5 8 1016.3 - 0.0 - - - - - - -
25/10:30pm 24.7 SSW 5 7 1016.4 - 0.0 - - - - - - -
25/10:00pm 24.8 SW 5 8 1016.3 - 0.0 - - - - - - -
25/09:30pm 24.8 SW 4 6 1016.1 - 0.0 - - - - - - -
25/09:00pm 24.8 SSW 3 5 1015.7 - 0.0 - - - - - - -
25/08:30pm 24.9 SW 3 5 1015.5 - 0.0 - - - - - - -
25/08:00pm 25.1 SW 2 5 1015.0 - 0.0 - - - - - - -
25/07:30pm 25.2 WSW 1 3 1014.5 - 0.0 - - - - - - -
25/07:00pm 25.3 W 3 5 1014.0 - 0.0 - - - - - - -
25/06:30pm 25.7 W 3 6 1013.6 - 0.0 - - - - - - -
25/06:00pm 26.6 W 3 6 1013.2 - 0.0 - - - - - - -
25/05:30pm 26.8 W 5 8 1012.9 - 0.0 - - - - - - -
25/05:00pm 26.5 W 6 9 1012.8 - 0.0 - - - - - - -
25/04:30pm 26.9 W 6 9 1012.7 - 0.0 - - - - - - -
25/04:00pm 27.8 W 5 9 1012.5 - 0.0 - - - - - - -
25/03:30pm 27.1 WSW 8 10 1012.6 - 0.0 - - - - - - -
25/03:00pm 28.6 W 5 9 1013.2 - 0.0 - - - - - - -
25/02:30pm 28.4 WNW 5 9 1013.3 - 0.0 - - - - - - -
25/02:00pm 27.6 W 6 9 1013.9 - 0.0 - - - - - - -
25/01:30pm 27.6 W 6 9 1014.3 - 0.0 - - - - - - -
25/01:00pm 27.6 W 5 8 1014.9 - 0.0 - - - - - - -
25/12:30pm 27.7 WSW 5 7 1015.5 - 0.0 - - - - - - -
25/12:00pm 26.6 WSW 5 7 1016.0 - 0.0 - - - - - - -
25/11:30am 28.5 W 3 5 1016.4 - 0.0 - - - - - - -

Other Formats:

Comma delimited format used in spreadsheet applications
http://www.bom.gov.au/fwo/IDD60701/IDD60701.94116.axf

JavaScript Object Notation format (JSON) in row-major order
http://www.bom.gov.au/fwo/IDD60701/IDD60701.94116.json